createdAt,value
2022-12-06T00:01:38.245Z,7.32
2022-12-06T00:04:40.710Z,7.52
2022-12-06T00:07:42.991Z,7.52
2022-12-06T00:10:45.461Z,7.53
2022-12-06T00:13:48.147Z,7.49
2022-12-06T00:16:51.865Z,7.39
2022-12-06T00:19:54.154Z,7.51
2022-12-06T00:22:56.635Z,7.49
2022-12-06T00:26:01.277Z,7.47
2022-12-06T00:29:04.884Z,7.46
2022-12-06T00:32:07.080Z,7.46
2022-12-06T00:35:09.622Z,7.35
2022-12-06T00:38:11.805Z,7.50
2022-12-06T00:41:22.417Z,7.34
2022-12-06T00:44:24.635Z,7.34
2022-12-06T00:47:27.065Z,7.46
2022-12-06T00:50:29.218Z,7.36
2022-12-06T00:53:31.571Z,7.41
2022-12-06T00:56:35.865Z,7.34
2022-12-06T00:59:38.316Z,7.41
2022-12-06T01:02:40.489Z,7.38
2022-12-06T01:05:45.608Z,7.36
2022-12-06T01:08:47.725Z,7.19
2022-12-06T01:11:50.206Z,7.29
2022-12-06T01:14:52.375Z,7.26
2022-12-06T01:17:55.081Z,7.09
2022-12-06T01:20:57.303Z,7.20
2022-12-06T01:23:59.877Z,7.14
2022-12-06T01:27:02.176Z,7.16
2022-12-06T01:30:06.140Z,7.10
2022-12-06T01:33:08.412Z,7.10
2022-12-06T01:36:23.723Z,6.97
2022-12-06T01:39:25.978Z,7.08
2022-12-06T01:42:28.514Z,6.91
2022-12-06T01:45:30.855Z,6.87
2022-12-06T01:48:35.133Z,6.85
2022-12-06T01:51:38.719Z,6.98
2022-12-06T01:54:41.238Z,6.98
2022-12-06T01:57:43.825Z,6.75
2022-12-06T02:00:46.391Z,6.91
2022-12-06T02:03:48.977Z,6.92
2022-12-06T02:06:52.990Z,6.92
2022-12-06T02:09:57.830Z,6.90
2022-12-06T02:13:00.303Z,6.85
2022-12-06T02:16:11.648Z,6.63
2022-12-06T02:19:48.217Z,6.70
2022-12-06T02:23:09.422Z,6.73
2022-12-06T02:26:43.229Z,6.72
2022-12-06T02:30:08.690Z,6.71
2022-12-06T02:33:20.378Z,6.69
2022-12-06T02:36:33.594Z,6.71
2022-12-06T02:39:47.181Z,6.60
2022-12-06T02:43:09.039Z,6.73
2022-12-06T02:46:15.009Z,6.55
2022-12-06T02:49:18.419Z,6.51
2022-12-06T02:52:26.599Z,6.68
2022-12-06T02:55:30.987Z,6.54
2022-12-06T02:58:37.170Z,6.69
2022-12-06T03:01:46.411Z,6.70
2022-12-06T03:05:08.703Z,6.57
2022-12-06T03:08:24.164Z,6.66
2022-12-06T03:11:35.555Z,6.68
2022-12-06T03:14:50.817Z,6.40
2022-12-06T03:18:10.062Z,6.15
2022-12-06T03:21:18.890Z,6.22
2022-12-06T03:24:22.835Z,5.97
2022-12-06T03:27:27.652Z,5.91
2022-12-06T03:30:33.394Z,5.94
2022-12-06T03:33:42.265Z,5.93
2022-12-06T03:36:47.768Z,6.04
2022-12-06T03:40:02.024Z,6.10
2022-12-06T03:43:05.419Z,6.11
2022-12-06T03:46:15.955Z,6.00
2022-12-06T03:49:26.121Z,6.09
2022-12-06T03:52:30.057Z,6.04
2022-12-06T03:55:32.339Z,5.99
2022-12-06T03:58:34.943Z,5.98
2022-12-06T04:01:38.908Z,5.78
2022-12-06T04:04:41.554Z,5.91
2022-12-06T04:07:44.020Z,5.86
2022-12-06T04:10:46.596Z,5.90
2022-12-06T04:13:48.898Z,5.79
2022-12-06T04:17:09.685Z,5.93
2022-12-06T04:20:12.090Z,5.89
2022-12-06T04:23:14.608Z,5.83
2022-12-06T04:26:19.850Z,5.80
2022-12-06T04:29:40.870Z,5.94
2022-12-06T04:33:01.761Z,6.01
2022-12-06T04:36:23.118Z,5.91
2022-12-06T04:39:25.963Z,5.91
2022-12-06T04:42:47.247Z,6.01
2022-12-06T04:45:51.585Z,5.82
2022-12-06T04:48:54.102Z,5.82
2022-12-06T04:51:56.384Z,5.90
2022-12-06T04:54:58.936Z,5.96
2022-12-06T04:58:01.291Z,5.84
2022-12-06T05:01:04.024Z,5.96
2022-12-06T05:04:06.458Z,5.85
2022-12-06T05:07:09.791Z,5.92
2022-12-06T05:10:12.147Z,6.04
2022-12-06T05:13:15.805Z,5.89
2022-12-06T05:16:18.204Z,6.03
2022-12-06T05:19:20.801Z,6.04
2022-12-06T05:22:23.659Z,6.07
2022-12-06T05:25:26.194Z,5.89
2022-12-06T05:28:29.470Z,5.93
2022-12-06T05:31:32.140Z,5.96
2022-12-06T05:34:34.564Z,5.95
2022-12-06T05:37:37.071Z,6.05
2022-12-06T05:40:43.758Z,6.06
2022-12-06T05:43:49.202Z,6.09
2022-12-06T05:46:51.453Z,6.07
2022-12-06T05:49:53.986Z,6.00
2022-12-06T05:52:58.436Z,5.90
2022-12-06T05:56:06.154Z,5.92
2022-12-06T05:59:08.446Z,6.10
2022-12-06T06:02:11.179Z,6.10
2022-12-06T06:05:14.579Z,6.14
2022-12-06T06:08:20.124Z,6.12
2022-12-06T06:11:22.782Z,6.00
2022-12-06T06:14:25.177Z,5.84
2022-12-06T06:17:27.665Z,5.81
2022-12-06T06:20:30.836Z,5.84
2022-12-06T06:23:33.758Z,5.92
2022-12-06T06:26:36.051Z,5.95
2022-12-06T06:29:42.172Z,5.95
2022-12-06T06:32:47.621Z,5.91
2022-12-06T06:35:50.192Z,5.89
2022-12-06T06:38:52.486Z,5.90
2022-12-06T06:41:55.080Z,5.82
2022-12-06T06:44:57.401Z,5.72
2022-12-06T06:47:59.912Z,5.77
2022-12-06T06:51:05.053Z,5.71
2022-12-06T06:54:07.682Z,5.84
2022-12-06T06:57:15.854Z,5.75
2022-12-06T07:00:20.186Z,5.79
2022-12-06T07:03:23.285Z,5.93
2022-12-06T07:06:25.935Z,6.04
2022-12-06T07:09:28.242Z,5.84
2022-12-06T07:12:30.867Z,6.04
2022-12-06T07:15:33.629Z,6.01
2022-12-06T07:18:36.131Z,6.06
2022-12-06T07:21:39.792Z,6.20
2022-12-06T07:24:49.284Z,6.10
2022-12-06T07:27:54.675Z,6.27
2022-12-06T07:30:57.572Z,6.32
2022-12-06T07:34:03.026Z,6.30
2022-12-06T07:37:06.607Z,6.19
2022-12-06T07:40:09.619Z,5.86
2022-12-06T07:43:30.864Z,6.31
2022-12-06T07:46:33.758Z,5.84
2022-12-06T07:49:36.494Z,5.74
2022-12-06T07:52:39.404Z,5.92
2022-12-06T07:55:42.163Z,6.42
2022-12-06T07:58:44.479Z,6.47
2022-12-06T08:01:47.346Z,6.13
2022-12-06T08:04:49.971Z,6.36
2022-12-06T08:07:52.322Z,6.37
2022-12-06T08:10:54.917Z,6.61
2022-12-06T08:13:57.286Z,6.59
2022-12-06T08:16:59.923Z,6.75
2022-12-06T08:20:07.439Z,6.81
2022-12-06T08:23:11.898Z,6.71
2022-12-06T08:26:16.164Z,6.94
2022-12-06T08:29:19.920Z,6.94
2022-12-06T08:32:22.122Z,6.95
2022-12-06T08:35:24.735Z,7.00
2022-12-06T08:38:28.471Z,6.86
2022-12-06T08:41:50.001Z,7.08
2022-12-06T08:44:54.398Z,7.02
2022-12-06T08:47:56.986Z,7.14
2022-12-06T08:51:02.637Z,7.11
2022-12-06T08:54:06.896Z,7.09
2022-12-06T08:57:09.178Z,7.25
2022-12-06T09:00:12.447Z,7.27
2022-12-06T09:03:14.692Z,8.07
2022-12-06T09:06:18.224Z,8.57
2022-12-06T09:09:20.725Z,8.49
2022-12-06T09:12:23.787Z,8.45
2022-12-06T09:15:26.047Z,8.30
2022-12-06T09:18:29.049Z,8.25
2022-12-06T09:21:34.667Z,8.84
2022-12-06T09:24:37.399Z,9.98
2022-12-06T09:27:54.091Z,10.68
2022-12-06T09:30:57.921Z,11.35
2022-12-06T09:34:00.337Z,12.09
2022-12-06T09:37:09.070Z,12.49
2022-12-06T09:40:24.672Z,12.94
2022-12-06T09:44:04.467Z,13.06
2022-12-06T09:47:34.477Z,12.73
2022-12-06T09:50:37.068Z,12.59
2022-12-06T09:53:54.204Z,12.04
2022-12-06T09:57:21.877Z,11.63
2022-12-06T10:00:39.835Z,11.11
2022-12-06T10:04:11.242Z,10.65
2022-12-06T10:07:27.795Z,10.36
2022-12-06T10:10:42.308Z,10.24
2022-12-06T10:13:55.721Z,10.17
2022-12-06T10:17:18.399Z,10.14
2022-12-06T10:20:23.624Z,10.07
2022-12-06T10:23:31.881Z,9.83
2022-12-06T10:26:53.679Z,9.76
2022-12-06T10:30:05.382Z,9.67
2022-12-06T10:33:20.472Z,9.46
2022-12-06T10:36:49.625Z,10.46
2022-12-06T10:39:52.297Z,12.52
2022-12-06T10:43:12.367Z,14.60
2022-12-06T10:46:51.490Z,16.74
2022-12-06T10:50:18.750Z,18.69
2022-12-06T10:53:23.771Z,19.80
2022-12-06T10:56:32.047Z,21.00
2022-12-06T11:00:00.339Z,21.07
2022-12-06T11:03:14.721Z,21.91
2022-12-06T11:06:28.500Z,21.81
2022-12-06T11:10:01.255Z,21.08
2022-12-06T11:13:19.413Z,20.64
2022-12-06T11:16:30.207Z,20.49
2022-12-06T11:19:59.766Z,20.13
2022-12-06T11:23:36.033Z,20.40
2022-12-06T11:26:47.915Z,19.46
2022-12-06T11:29:51.347Z,19.01
2022-12-06T11:32:55.582Z,18.55
2022-12-06T11:36:02.582Z,18.16
2022-12-06T11:39:05.157Z,17.49
2022-12-06T11:42:10.054Z,17.04
2022-12-06T11:45:21.874Z,16.72
2022-12-06T11:48:32.393Z,15.99
2022-12-06T11:51:34.679Z,15.83
2022-12-06T11:54:43.552Z,15.13
2022-12-06T11:58:07.762Z,14.40
2022-12-06T12:01:14.175Z,13.70
2022-12-06T12:04:25.767Z,13.07
2022-12-06T12:07:28.630Z,12.47
2022-12-06T12:10:34.420Z,11.92
2022-12-06T12:13:45.929Z,11.60
2022-12-06T12:16:54.818Z,11.50
2022-12-06T12:20:07.844Z,11.29
2022-12-06T12:23:17.539Z,11.12
2022-12-06T12:26:21.927Z,10.70
2022-12-06T12:29:24.455Z,10.25
2022-12-06T12:32:26.749Z,10.34
2022-12-06T12:35:29.275Z,10.17
2022-12-06T12:39:04.193Z,9.83
2022-12-06T12:42:26.501Z,9.77
2022-12-06T12:45:30.351Z,9.47
2022-12-06T12:48:35.115Z,9.32
2022-12-06T12:51:39.179Z,9.36
2022-12-06T12:55:04.584Z,9.13
2022-12-06T12:58:10.852Z,9.13
2022-12-06T13:01:16.537Z,9.31
2022-12-06T13:04:42.765Z,9.28
2022-12-06T13:07:48.180Z,9.44
2022-12-06T13:10:59.342Z,9.50
2022-12-06T13:14:03.293Z,9.46
2022-12-06T13:17:08.957Z,9.38
2022-12-06T13:20:22.217Z,9.35
2022-12-06T13:23:29.405Z,9.06
2022-12-06T13:26:43.308Z,9.13
2022-12-06T13:30:07.716Z,8.98
2022-12-06T13:33:22.154Z,8.82
2022-12-06T13:36:25.351Z,8.69
2022-12-06T13:39:30.981Z,8.66
2022-12-06T13:42:36.036Z,8.62
2022-12-06T13:45:49.441Z,8.62
2022-12-06T13:49:03.355Z,8.43
2022-12-06T13:52:05.862Z,8.51
2022-12-06T13:55:26.949Z,8.48
2022-12-06T13:58:29.374Z,8.46
2022-12-06T14:01:46.948Z,8.46
2022-12-06T14:04:49.533Z,8.43
2022-12-06T14:07:57.854Z,8.22
2022-12-06T14:11:12.359Z,8.31
2022-12-06T14:14:21.429Z,8.24
2022-12-06T14:18:00.720Z,8.20
2022-12-06T14:20:59.905Z,8.10
2022-12-06T14:24:03.723Z,7.94
2022-12-06T14:27:17.652Z,7.90
2022-12-06T14:30:25.857Z,7.85
2022-12-06T14:33:28.518Z,7.81
2022-12-06T14:36:39.060Z,7.75
2022-12-06T14:39:41.340Z,7.65
2022-12-06T14:43:02.213Z,7.53
2022-12-06T14:46:12.243Z,7.35
2022-12-06T14:49:37.922Z,7.42
2022-12-06T14:52:59.925Z,7.36
2022-12-06T14:56:19.361Z,7.27
2022-12-06T15:00:02.911Z,7.22
2022-12-06T15:03:00.634Z,7.12
2022-12-06T15:06:30.288Z,7.09
2022-12-06T15:09:44.882Z,7.01
2022-12-06T15:12:56.721Z,6.97
2022-12-06T15:16:10.260Z,6.92
2022-12-06T15:19:17.373Z,6.67
2022-12-06T15:22:27.482Z,6.74
2022-12-06T15:25:29.741Z,6.75
2022-12-06T15:28:34.200Z,6.76
2022-12-06T15:31:37.249Z,6.57
2022-12-06T15:34:39.976Z,6.69
2022-12-06T15:37:48.746Z,6.66
2022-12-06T15:40:55.378Z,6.68
2022-12-06T15:43:57.801Z,6.68
2022-12-06T15:47:00.377Z,6.64
2022-12-06T15:50:03.707Z,6.66
2022-12-06T15:53:06.667Z,6.60
2022-12-06T15:56:24.133Z,6.40
2022-12-06T15:59:26.725Z,6.51
2022-12-06T16:02:29.043Z,6.46
2022-12-06T16:05:31.653Z,6.19
2022-12-06T16:08:33.884Z,6.42
2022-12-06T16:11:36.530Z,6.22
2022-12-06T16:14:40.194Z,6.27
2022-12-06T16:17:42.739Z,6.29
2022-12-06T16:20:44.980Z,6.13
2022-12-06T16:24:13.400Z,6.14
2022-12-06T16:27:16.547Z,6.33
2022-12-06T16:30:31.363Z,6.11
2022-12-06T16:33:34.054Z,6.27
2022-12-06T16:36:55.852Z,6.27
2022-12-06T16:39:58.188Z,6.10
2022-12-06T16:43:00.801Z,6.26
2022-12-06T16:46:31.864Z,6.04
2022-12-06T16:49:48.438Z,6.02
2022-12-06T16:52:52.393Z,6.17
2022-12-06T16:55:54.946Z,6.13
2022-12-06T16:58:57.688Z,5.64
2022-12-06T17:02:00.495Z,5.98
2022-12-06T17:05:06.450Z,6.13
2022-12-06T17:08:09.401Z,6.00
2022-12-06T17:11:36.324Z,5.98
2022-12-06T17:14:39.485Z,6.03
2022-12-06T17:17:41.914Z,5.86
2022-12-06T17:20:44.445Z,6.02
2022-12-06T17:23:46.677Z,5.96
2022-12-06T17:26:49.313Z,5.80
2022-12-06T17:29:51.786Z,5.76
2022-12-06T17:32:54.367Z,5.90
2022-12-06T17:35:56.659Z,5.78
2022-12-06T17:39:01.290Z,5.87
2022-12-06T17:42:22.749Z,5.79
2022-12-06T17:45:25.769Z,5.74
2022-12-06T17:48:33.326Z,5.63
2022-12-06T17:51:37.895Z,5.62
2022-12-06T17:54:40.190Z,5.70
2022-12-06T17:57:42.851Z,5.68
2022-12-06T18:00:45.149Z,5.69
2022-12-06T18:03:51.177Z,5.69
2022-12-06T18:06:53.803Z,5.68
2022-12-06T18:09:56.357Z,5.53
2022-12-06T18:13:01.475Z,5.64
2022-12-06T18:16:21.755Z,5.66
2022-12-06T18:19:24.084Z,5.67
2022-12-06T18:22:26.647Z,5.52
2022-12-06T18:25:31.175Z,5.55
2022-12-06T18:28:33.755Z,5.52
2022-12-06T18:31:36.896Z,5.52
2022-12-06T18:34:39.550Z,5.42
2022-12-06T18:37:42.128Z,5.62
2022-12-06T18:40:44.908Z,5.56
2022-12-06T18:43:48.333Z,5.61
2022-12-06T18:46:51.292Z,5.45
2022-12-06T18:49:53.871Z,5.58
2022-12-06T18:52:56.549Z,5.55
2022-12-06T18:55:58.834Z,5.55
2022-12-06T18:59:04.269Z,5.57
2022-12-06T19:02:06.733Z,5.34
2022-12-06T19:05:09.553Z,5.33
2022-12-06T19:08:11.969Z,5.47
2022-12-06T19:11:18.756Z,5.38
2022-12-06T19:14:23.147Z,5.43
2022-12-06T19:17:25.789Z,5.33
2022-12-06T19:20:28.042Z,5.45
2022-12-06T19:23:30.583Z,5.45
2022-12-06T19:26:33.994Z,5.29
2022-12-06T19:29:36.557Z,5.27
2022-12-06T19:32:38.776Z,5.29
2022-12-06T19:35:41.323Z,5.30
2022-12-06T19:38:44.573Z,5.46
2022-12-06T19:42:06.216Z,5.32
2022-12-06T19:45:09.012Z,5.42
2022-12-06T19:48:11.562Z,5.32
2022-12-06T19:51:14.355Z,5.36
2022-12-06T19:54:23.074Z,5.46
2022-12-06T19:57:25.310Z,5.45
2022-12-06T20:00:27.857Z,5.41
2022-12-06T20:03:30.816Z,5.21
2022-12-06T20:06:33.398Z,5.31
2022-12-06T20:09:36.062Z,5.14
2022-12-06T20:12:41.877Z,5.13
2022-12-06T20:15:44.449Z,5.19
2022-12-06T20:18:46.747Z,5.12
2022-12-06T20:21:49.320Z,5.31
2022-12-06T20:24:51.760Z,5.34
2022-12-06T20:27:55.952Z,5.36
2022-12-06T20:30:58.922Z,5.36
2022-12-06T20:34:03.631Z,5.42
2022-12-06T20:37:07.001Z,5.28
2022-12-06T20:40:10.183Z,5.43
2022-12-06T20:43:12.579Z,5.35
2022-12-06T20:46:17.606Z,5.50
2022-12-06T20:49:20.291Z,5.52
2022-12-06T20:52:23.604Z,5.49
2022-12-06T20:55:26.346Z,5.32
2022-12-06T20:58:28.863Z,5.45
2022-12-06T21:01:34.563Z,5.30
2022-12-06T21:04:37.276Z,5.43
2022-12-06T21:07:39.579Z,5.36
2022-12-06T21:11:06.611Z,5.38
2022-12-06T21:14:05.898Z,5.25
2022-12-06T21:17:08.862Z,5.37
2022-12-06T21:20:11.732Z,5.35
2022-12-06T21:23:14.255Z,5.44
2022-12-06T21:26:16.619Z,5.39
2022-12-06T21:29:28.388Z,5.12
2022-12-06T21:32:35.407Z,5.05
2022-12-06T21:35:40.739Z,4.91
2022-12-06T21:38:43.049Z,4.91
2022-12-06T21:41:45.972Z,4.90
2022-12-06T21:44:51.158Z,4.61
2022-12-06T21:47:53.737Z,4.57
2022-12-06T21:51:01.743Z,4.61
2022-12-06T21:54:04.712Z,4.33
2022-12-06T21:57:07.094Z,4.57
2022-12-06T22:00:11.393Z,4.41
2022-12-06T22:03:19.221Z,4.56
2022-12-06T22:06:26.226Z,4.48
2022-12-06T22:09:28.532Z,4.45
2022-12-06T22:12:31.169Z,4.52
2022-12-06T22:15:33.445Z,4.31
2022-12-06T22:18:44.010Z,4.49
2022-12-06T22:21:47.860Z,4.51
2022-12-06T22:24:50.492Z,4.47
2022-12-06T22:27:54.069Z,4.57
2022-12-06T22:31:09.983Z,4.59
2022-12-06T22:34:12.641Z,4.24
2022-12-06T22:37:15.436Z,4.66
2022-12-06T22:40:17.738Z,4.49
2022-12-06T22:43:20.418Z,4.59
2022-12-06T22:46:24.060Z,4.58
2022-12-06T22:49:26.630Z,4.62
2022-12-06T22:52:31.144Z,4.59
2022-12-06T22:55:33.835Z,4.56
2022-12-06T22:58:36.554Z,4.53
2022-12-06T23:01:39.511Z,4.65
2022-12-06T23:04:41.789Z,4.64
2022-12-06T23:07:44.861Z,4.47
2022-12-06T23:10:47.195Z,4.70
2022-12-06T23:13:49.794Z,4.63
2022-12-06T23:16:52.061Z,4.61
2022-12-06T23:19:54.663Z,4.76
2022-12-06T23:22:56.895Z,4.76
2022-12-06T23:26:08.243Z,4.74
2022-12-06T23:29:10.920Z,4.79
2022-12-06T23:32:13.479Z,4.78
2022-12-06T23:35:15.780Z,4.83
2022-12-06T23:38:18.351Z,4.81
2022-12-06T23:41:25.515Z,4.90
2022-12-06T23:44:28.093Z,4.89
2022-12-06T23:47:30.342Z,4.77
2022-12-06T23:50:32.989Z,4.85
2022-12-06T23:53:35.845Z,4.72
2022-12-06T23:56:40.582Z,4.83
2022-12-06T23:59:42.826Z,4.87
